createdAt,value
2022-10-17T00:01:11.821Z,96333.53
2022-10-17T00:06:14.915Z,96333.69
2022-10-17T00:11:19.475Z,96338.78
2022-10-17T00:16:24.869Z,96338.13
2022-10-17T00:21:26.720Z,96339.22
2022-10-17T00:26:28.226Z,96350.00
2022-10-17T00:31:29.673Z,96352.41
2022-10-17T00:36:31.116Z,96359.56
2022-10-17T00:41:33.569Z,96354.38
2022-10-17T00:46:39.104Z,96353.97
2022-10-17T00:51:49.408Z,96352.97
2022-10-17T00:56:51.660Z,96348.38
2022-10-17T01:02:10.826Z,96349.06
2022-10-17T01:07:12.587Z,96351.19
2022-10-17T01:12:20.299Z,96346.28
2022-10-17T01:17:37.071Z,96345.84
2022-10-17T01:22:59.068Z,96346.16
2022-10-17T01:28:14.370Z,96344.50
2022-10-17T01:33:35.150Z,96349.91
2022-10-17T01:38:49.038Z,96339.03
2022-10-17T01:43:58.485Z,96329.13
2022-10-17T01:49:03.166Z,96330.22
2022-10-17T01:54:07.992Z,96329.81
2022-10-17T01:59:14.991Z,96326.00
2022-10-17T02:04:16.516Z,96318.34
2022-10-17T02:09:26.460Z,96311.66
2022-10-17T02:15:05.989Z,96316.09
2022-10-17T02:20:23.831Z,96330.44
2022-10-17T02:25:40.323Z,96329.63
2022-10-17T02:30:47.145Z,96329.63
2022-10-17T02:35:53.504Z,96328.66
2022-10-17T02:40:56.076Z,96332.88
2022-10-17T02:45:57.921Z,96336.78
2022-10-17T02:51:05.427Z,96332.91
2022-10-17T02:56:15.496Z,96326.47
2022-10-17T03:01:18.351Z,96325.06
2022-10-17T03:06:20.361Z,96333.53
2022-10-17T03:11:21.752Z,96340.91
2022-10-17T03:16:25.298Z,96335.41
2022-10-17T03:21:26.836Z,96338.44
2022-10-17T03:26:28.555Z,96360.16
2022-10-17T03:31:31.320Z,96364.44
2022-10-17T03:36:34.330Z,96366.38
2022-10-17T03:41:36.501Z,96365.94
2022-10-17T03:46:38.584Z,96375.28
2022-10-17T03:51:40.975Z,96384.31
2022-10-17T03:56:47.184Z,96395.75
2022-10-17T04:01:52.198Z,96398.69
2022-10-17T04:06:53.786Z,96402.00
2022-10-17T04:11:55.687Z,96406.81
2022-10-17T04:16:58.624Z,96406.41
2022-10-17T04:22:01.269Z,96415.13
2022-10-17T04:27:07.351Z,96416.75
2022-10-17T04:32:12.483Z,96412.94
2022-10-17T04:37:29.345Z,96411.56
2022-10-17T04:42:32.093Z,96423.28
2022-10-17T04:47:34.110Z,96428.34
2022-10-17T04:52:35.851Z,96429.75
2022-10-17T04:57:37.301Z,96421.81
2022-10-17T05:02:46.905Z,96420.28
2022-10-17T05:07:49.206Z,96423.81
2022-10-17T05:12:55.727Z,96427.16
2022-10-17T05:18:00.903Z,96426.03
2022-10-17T05:23:03.982Z,96430.94
2022-10-17T05:28:10.520Z,96430.94
2022-10-17T05:33:14.108Z,96442.34
2022-10-17T05:38:15.571Z,96433.31
2022-10-17T05:43:19.159Z,96433.13
2022-10-17T05:48:23.511Z,96424.34
2022-10-17T05:53:25.631Z,96437.00
2022-10-17T06:04:04.670Z,96445.56
2022-10-17T06:09:07.081Z,96454.31
2022-10-17T06:14:12.266Z,96453.50
2022-10-17T06:19:15.634Z,96460.72
2022-10-17T06:24:17.120Z,96473.09
2022-10-17T06:29:19.014Z,96484.16
2022-10-17T06:34:26.179Z,96485.56
2022-10-17T06:39:27.665Z,96495.94
2022-10-17T06:44:35.577Z,96497.97
2022-10-17T06:49:55.511Z,96502.91
2022-10-17T06:55:06.154Z,96510.69
2022-10-17T07:00:16.479Z,96520.38
2022-10-17T07:05:23.607Z,96528.91
2022-10-17T07:10:26.408Z,96535.34
2022-10-17T07:15:27.823Z,96531.56
2022-10-17T07:20:30.718Z,96542.59
2022-10-17T07:25:35.217Z,96545.91
2022-10-17T07:30:42.690Z,96548.44
2022-10-17T07:35:46.754Z,96559.22
2022-10-17T07:41:03.587Z,96565.25
2022-10-17T07:46:05.608Z,96566.63
2022-10-17T07:51:10.112Z,96578.03
2022-10-17T07:56:12.787Z,96569.47
2022-10-17T08:01:15.381Z,96575.13
2022-10-17T08:06:18.004Z,96572.69
2022-10-17T08:11:19.428Z,96579.88
2022-10-17T08:16:20.829Z,96575.44
2022-10-17T08:21:22.217Z,96577.78
2022-10-17T08:26:23.738Z,96575.44
2022-10-17T08:31:25.243Z,96570.13
2022-10-17T08:36:26.630Z,96568.47
2022-10-17T08:41:34.029Z,96585.41
2022-10-17T08:46:39.391Z,96580.25
2022-10-17T08:51:49.657Z,96583.69
2022-10-17T08:56:55.093Z,96581.47
2022-10-17T09:02:21.010Z,96580.53
2022-10-17T09:07:32.416Z,96574.91
2022-10-17T09:12:47.157Z,96581.63
2022-10-17T09:18:21.114Z,96582.28
2022-10-17T09:23:40.338Z,96589.94
2022-10-17T09:28:46.291Z,96591.06
2022-10-17T09:33:54.284Z,96592.13
2022-10-17T09:39:04.853Z,96593.25
2022-10-17T09:44:30.845Z,96602.53
2022-10-17T09:49:34.909Z,96600.34
2022-10-17T09:54:45.379Z,96595.41
2022-10-17T10:00:04.130Z,96607.84
2022-10-17T10:05:19.399Z,96604.03
2022-10-17T10:10:27.795Z,96607.88
2022-10-17T10:15:33.027Z,96609.84
2022-10-17T10:20:36.917Z,96612.00
2022-10-17T10:25:38.825Z,96618.97
2022-10-17T10:30:40.406Z,96612.56
2022-10-17T10:35:41.868Z,96610.09
2022-10-17T10:40:50.139Z,96612.38
2022-10-17T10:45:52.307Z,96603.88
2022-10-17T10:51:02.525Z,96610.91
2022-10-17T10:56:20.613Z,96604.63
2022-10-17T11:01:40.314Z,96600.38
2022-10-17T11:06:44.384Z,96599.41
2022-10-17T11:11:52.448Z,96596.22
2022-10-17T11:17:05.986Z,96587.56
2022-10-17T11:22:26.632Z,96587.09
2022-10-17T11:27:30.967Z,96578.72
2022-10-17T11:32:43.177Z,96578.47
2022-10-17T11:37:49.881Z,96575.66
2022-10-17T11:42:58.413Z,96575.09
2022-10-17T11:48:10.614Z,96580.63
2022-10-17T11:53:21.876Z,96565.97
2022-10-17T11:58:53.015Z,96566.38
2022-10-17T12:04:25.577Z,96559.78
2022-10-17T12:09:38.892Z,96557.91
2022-10-17T12:14:45.511Z,96554.16
2022-10-17T12:19:46.952Z,96554.75
2022-10-17T12:25:02.378Z,96560.50
2022-10-17T12:30:25.649Z,96545.59
2022-10-17T12:35:28.596Z,96554.50
2022-10-17T12:40:36.097Z,96548.75
2022-10-17T12:45:57.200Z,96540.06
2022-10-17T12:51:30.774Z,96548.38
2022-10-17T12:56:44.264Z,96541.59
2022-10-17T13:01:48.461Z,96537.38
2022-10-17T13:06:54.069Z,96548.41
2022-10-17T13:11:58.335Z,96543.53
2022-10-17T13:17:07.378Z,96539.47
2022-10-17T13:22:15.503Z,96540.97
2022-10-17T13:27:31.938Z,96540.00
2022-10-17T13:32:39.072Z,96541.44
2022-10-17T13:37:43.599Z,96541.34
2022-10-17T13:42:45.888Z,96541.78
2022-10-17T13:47:47.536Z,96554.31
2022-10-17T13:52:48.938Z,96557.53
2022-10-17T13:57:50.370Z,96554.19
2022-10-17T14:02:51.822Z,96552.41
2022-10-17T14:08:16.691Z,96541.53
2022-10-17T14:13:30.754Z,96546.66
2022-10-17T14:18:37.165Z,96553.25
2022-10-17T14:23:42.331Z,96544.00
2022-10-17T14:28:47.117Z,96551.16
2022-10-17T14:33:51.002Z,96555.41
2022-10-17T14:38:52.858Z,96547.94
2022-10-17T14:43:57.173Z,96551.44
2022-10-17T14:49:07.155Z,96547.69
2022-10-17T14:54:24.634Z,96548.75
2022-10-17T14:59:52.082Z,96560.25
2022-10-17T15:04:47.463Z,96554.75
2022-10-17T15:09:50.329Z,96562.94
2022-10-17T15:14:52.856Z,96556.91
2022-10-17T15:19:55.009Z,96561.91
2022-10-17T15:24:56.394Z,96559.19
2022-10-17T15:29:58.283Z,96558.09
2022-10-17T15:34:59.671Z,96564.59
2022-10-17T15:40:01.093Z,96570.44
2022-10-17T15:45:02.629Z,96566.66
2022-10-17T15:50:06.598Z,96572.47
2022-10-17T15:55:09.201Z,96572.72
2022-10-17T16:00:19.780Z,96574.47
2022-10-17T16:05:24.342Z,96569.00
2022-10-17T16:10:26.047Z,96570.84
2022-10-17T16:15:28.206Z,96571.16
2022-10-17T16:20:29.647Z,96578.47
2022-10-17T16:25:32.084Z,96588.03
2022-10-17T16:30:40.100Z,96599.59
2022-10-17T16:35:41.610Z,96606.69
2022-10-17T16:40:43.127Z,96602.00
2022-10-17T16:45:44.564Z,96604.00
2022-10-17T16:50:45.961Z,96608.94
2022-10-17T16:55:59.086Z,96611.84
2022-10-17T17:01:01.640Z,96617.03
2022-10-17T17:06:04.160Z,96613.03
2022-10-17T17:11:10.445Z,96626.41
2022-10-17T17:16:18.136Z,96634.34
2022-10-17T17:21:19.622Z,96637.00
2022-10-17T17:26:22.485Z,96651.00
2022-10-17T17:31:30.243Z,96654.16
2022-10-17T17:36:34.540Z,96662.28
2022-10-17T17:41:36.346Z,96665.66
2022-10-17T17:46:37.851Z,96665.41
2022-10-17T17:51:39.603Z,96671.69
2022-10-17T17:56:41.079Z,96680.50
2022-10-17T18:01:42.950Z,96687.44
2022-10-17T18:06:44.459Z,96697.78
2022-10-17T18:11:45.854Z,96708.59
2022-10-17T18:16:47.329Z,96718.03
2022-10-17T18:21:48.746Z,96717.78
2022-10-17T18:26:50.112Z,96720.91
2022-10-17T18:31:51.551Z,96711.94
2022-10-17T18:36:55.971Z,96722.00
2022-10-17T18:41:57.588Z,96724.81
2022-10-17T18:47:02.914Z,96726.81
2022-10-17T18:52:05.767Z,96723.53
2022-10-17T18:57:07.183Z,96719.09
2022-10-17T19:02:10.999Z,96724.44
2022-10-17T19:07:12.394Z,96725.72
2022-10-17T19:12:13.794Z,96721.16
2022-10-17T19:17:15.218Z,96726.59
2022-10-17T19:22:16.605Z,96718.84
2022-10-17T19:27:18.033Z,96723.38
2022-10-17T19:32:22.199Z,96725.44
2022-10-17T19:37:24.624Z,96733.38
2022-10-17T19:42:26.010Z,96751.34
2022-10-17T19:47:27.417Z,96741.56
2022-10-17T19:52:29.108Z,96745.38
2022-10-17T19:57:30.767Z,96743.00
2022-10-17T20:02:32.529Z,96740.47
2022-10-17T20:07:34.191Z,96736.00
2022-10-17T20:12:35.598Z,96733.44
2022-10-17T20:17:37.002Z,96731.97
2022-10-17T20:22:38.453Z,96733.38
2022-10-17T20:27:39.880Z,96738.28
2022-10-17T20:32:41.245Z,96747.78
2022-10-17T20:37:42.876Z,96744.81
2022-10-17T20:42:44.422Z,96753.94
2022-10-17T20:47:52.342Z,96759.72
2022-10-17T20:53:10.943Z,96755.69
2022-10-17T20:58:15.329Z,96764.91
2022-10-17T21:03:16.808Z,96764.66
2022-10-17T21:08:18.283Z,96768.81
2022-10-17T21:13:21.934Z,96760.13
2022-10-17T21:18:23.321Z,96752.69
2022-10-17T21:23:24.710Z,96758.13
2022-10-17T21:28:26.254Z,96748.34
2022-10-17T21:33:28.633Z,96752.94
2022-10-17T21:38:30.189Z,96759.09
2022-10-17T21:43:32.963Z,96752.16
2022-10-17T21:48:34.974Z,96749.78
2022-10-17T21:53:37.394Z,96753.16
2022-10-17T21:58:39.339Z,96745.44
2022-10-17T22:03:45.893Z,96741.94
2022-10-17T22:08:48.978Z,96742.31
2022-10-17T22:14:03.096Z,96743.03
2022-10-17T22:19:06.712Z,96737.44
2022-10-17T22:24:11.575Z,96736.09
2022-10-17T22:29:13.765Z,96734.94
2022-10-17T22:34:16.576Z,96742.78
2022-10-17T22:39:18.094Z,96756.22
2022-10-17T22:44:19.479Z,96755.38
2022-10-17T22:49:20.865Z,96750.75
2022-10-17T22:54:22.265Z,96746.84
2022-10-17T22:59:23.718Z,96743.78
2022-10-17T23:04:25.148Z,96735.53
2022-10-17T23:14:28.926Z,96745.44
2022-10-17T23:19:30.576Z,96732.28
2022-10-17T23:24:32.525Z,96730.50
2022-10-17T23:29:34.507Z,96741.75
2022-10-17T23:34:35.919Z,96743.94
2022-10-17T23:39:37.317Z,96741.22
2022-10-17T23:44:38.723Z,96739.56
2022-10-17T23:49:40.135Z,96739.25
2022-10-17T23:59:47.814Z,96746.81
